Terminal Aerodrome Forecast
Issued by NWS

Home | Current Version | Previous Version | Text Only | Print | Product List | Glossary On
Versions: 1 2 3 4 5 6 7 8 9 10 11 12 13 14 15 16 17 18 19 20 21 22 23 24 25 26
000
FTUS43 KDLH 240500 AAB
TAFHIB
TAF AMD
KHIB 240518Z 2405/2424 33008KT 5SM BR OVC006
      TEMPO 2405/2408 2SM -SN OVC004
     FM240800 32010G18KT 2SM -SN BR OVC008
     FM241200 33015G25KT 3SM -SN BLSN OVC012
     FM241800 34018G30KT 5SM -SN BLSN OVC020=

USA.gov is the U.S. government's official web portal to all federal, state and local government web resources and services.